• Join FlightAware (Why Join?)
  • Login
  • US Flag 
03:35AM EDT


 

Airport Tracker/Info


-or-


 

Live Flight TrackerFlight Track Log ✈ EJA583 ✈ 22-Jul-2013 ✈ KMQS - KSAV

Flight Track Log - Related Links

Times and Time Zones

All times are in EDT time to prevent confusion due to time zone crossing. See the EJA583 flight status page for this flight to view local times or setup timezone preferences in your user account.

Time Position Orientation Groundspeed Altitude Reporting Facility
EDT Latitude Longitude Course Direction KTS MPH feet Rate Location/Type
02:17PM 39.9667 -75.8333 123° Southeast 198 228 1,800  Level Philadelphia TRACON
02:19PM 39.9333 -75.7667 123° Southeast 203 234 6,000 2,880 Climbing Philadelphia TRACON
02:20PM 39.8667 -75.7333 159° South 250 288 8,600 1,440 Climbing Philadelphia TRACON
02:21PM 39.8167 -75.6667 134° Southeast 303 349 9,000 900 Climbing Philadelphia TRACON
02:23PM 39.6739 -75.5106 140° Southeast 304 350 11,700 1,020 Climbing Washington Center
02:24PM 39.6008 -75.4300 140° Southeast 320 368 12,400 1,680 Climbing Washington Center
02:25PM 39.5278 -75.3547 142° Southeast 335 386 15,200 1,740 Climbing Washington Center
02:26PM 39.4383 -75.3389 172° South 319 367 16,000 360 Climbing Washington Center
02:27PM 39.3361 -75.3556 187° South 329 379 16,000  Level Washington Center
02:28PM 39.2342 -75.3664 185° South 352 405 16,000  Level Washington Center
02:29PM 39.1381 -75.3828 188° South 366 421 16,000  Level Washington Center
02:30PM 39.0381 -75.4019 188° South 358 412 16,000  Level Washington Center
02:31PM 38.9361 -75.4208 188° South 364 419 16,000 900 Level Washington Center
02:32PM 38.8361 -75.4425 190° South 374 430 17,900 2,100 Climbing Washington Center
02:33PM 38.7464 -75.4533 185° South 353 406 20,200 1,980 Climbing Washington Center
02:34PM 38.6608 -75.4667 187° South 337 388 21,900 1,560 Climbing Washington Center
02:35PM 38.5714 -75.4803 187° South 324 373 23,400 1,320 Climbing Washington Center
02:36PM 38.4775 -75.4908 185° South 329 379 24,600 1,200 Climbing Washington Center
02:37PM 38.3817 -75.5069 188° South 341 392 25,900 1,320 Climbing Washington Center
02:38PM 38.2858 -75.5361 193° South 354 407 27,200 1,200 Climbing Washington Center
02:39PM 38.1878 -75.5600 191° South 354 407 28,300 1,020 Climbing Washington Center
02:40PM 38.0897 -75.5892 193° South 359 413 29,300 900 Climbing Washington Center
02:41PM 37.9897 -75.6181 193° South 364 419 30,200 900 Climbing Washington Center
02:42PM 37.9000 -75.6733 206° Southwest 364 419 31,100 900 Climbing Washington Center
02:43PM 37.8247 -75.7600 222° Southwest 358 412 32,100 1,080 Climbing Washington Center
02:44PM 37.7494 -75.8467 222° Southwest 363 418 33,300 1,200 Climbing Washington Center
02:45PM 37.6783 -75.9328 224° Southwest 363 418 34,500 1,140 Climbing Washington Center
02:46PM 37.6072 -76.0192 224° Southwest 363 418 35,700 1,260 Climbing Washington Center
02:47PM 37.5567 -76.1236 239° Southwest 358 412 37,100 1,380 Climbing Washington Center
02:48PM 37.5000 -76.2147 232° Southwest 353 406 38,600 1,260 Climbing Washington Center
02:49PM 37.4244 -76.2900 218° Southwest 342 394 39,700 660 Climbing Washington Center
02:50PM 37.3489 -76.3703 220° Southwest 347 399 40,000 60 Climbing Washington Center
02:52PM 37.2365 -76.4831 247° West  Level Estimated
02:52PM 37.1786 -76.5406 247° West 392 451 40,000  Level Washington Center
02:53PM 37.0925 -76.6281 219° Southwest 405 466 40,000  Level Washington Center
02:54PM 37.0061 -76.7156 219° Southwest 405 466 40,000  Level Washington Center
02:55PM 36.9197 -76.8000 218° Southwest 398 458 40,000  Level Washington Center
02:56PM 36.8356 -76.8842 219° Southwest 398 458 40,000  Level Washington Center
02:57PM 36.7492 -76.9683 218° Southwest 398 458 40,000  Level Washington Center
02:58PM 36.6667 -77.0522 219° Southwest 398 458 40,000  Level Washington Center
02:59PM 36.5800 -77.1361 218° Southwest 398 458 40,000  Level Washington Center
03:00PM 36.4933 -77.2222 219° Southwest 398 458 40,000  Level Washington Center
03:01PM 36.4047 -77.3056 217° Southwest 398 458 40,000  Level Washington Center
03:02PM 36.3200 -77.3889 218° Southwest 403 464 40,000  Level Washington Center
03:03PM 36.2436 -77.4669 220° Southwest 396 456 40,000  Level Washington Center
03:04PM 36.1589 -77.5497 218° Southwest 396 456 40,000  Level Washington Center
03:05PM 36.0614 -77.6425 218° Southwest 402 463 40,000  Level Washington Center
03:06PM 35.9742 -77.7275 218° Southwest 402 463 40,000  Level Washington Center
03:07PM 35.8850 -77.8122 218° Southwest 402 463 40,000  Level Washington Center
03:08PM 35.7958 -77.8942 217° Southwest 402 463 40,000  Level Washington Center
03:09PM 35.7067 -77.9811 218° Southwest 402 463 40,000  Level Washington Center
03:10PM 35.6153 -78.0653 217° Southwest 402 463 40,000  Level Washington Center
03:11PM 35.5278 -78.1467 217° Southwest 402 463 40,000  Level Washington Center
03:12PM 35.4386 -78.2281 217° Southwest 402 463 40,000  Level Washington Center
03:13PM 35.3469 -78.3142 217° Southwest 402 463 40,000  Level Washington Center
03:14PM 35.2572 -78.4003 218° Southwest 402 463 40,000  Level Washington Center
03:15PM 35.1697 -78.4861 219° Southwest 402 463 40,000  Level Washington Center
03:16PM 35.0800 -78.5692 217° Southwest 402 463 40,000  Level Washington Center
03:18PM 34.8967 -78.7392 217° Southwest 411 473 40,000  Level Jacksonville Center
03:19PM 34.8094 -78.8192 217° Southwest 411 473 40,000  Level Jacksonville Center
03:20PM 34.7244 -78.8992 218° Southwest 406 467 40,000  Level Jacksonville Center
03:21PM 34.6353 -78.9789 216° Southwest 406 467 40,000  Level Jacksonville Center
03:22PM 34.5458 -79.0611 217° Southwest 406 467 40,000  Level Jacksonville Center
03:23PM 34.4589 -79.1481 220° Southwest 406 467 40,000  Level Jacksonville Center
03:24PM 34.3694 -79.2300 217° Southwest 406 467 40,000  Level Jacksonville Center
03:25PM 34.2678 -79.3222 217° Southwest 414 476 40,000  Level Jacksonville Center
03:26PM 34.1761 -79.4011 215° Southwest 414 476 40,000 -540 Level Jacksonville Center
03:27PM 34.0947 -79.4772 218° Southwest 401 461 39,000 -1,080 Descending Jacksonville Center
03:28PM 34.0072 -79.5558 217° Southwest 401 461 37,900 -1,200 Descending Jacksonville Center
03:29PM 33.9194 -79.6342 217° Southwest 401 461 36,700 -1,200 Descending Jacksonville Center
03:30PM 33.8317 -79.7125 217° Southwest 401 461 35,500 -1,200 Descending Jacksonville Center
03:31PM 33.7442 -79.7931 217° Southwest 401 461 34,300 -1,260 Descending Jacksonville Center
03:32PM 33.6542 -79.8711 216° Southwest 407 468 33,000 -1,320 Descending Jacksonville Center
03:33PM 33.5600 -79.9539 216° Southwest 407 468 31,700 -1,320 Descending Jacksonville Center
03:34PM 33.4681 -80.0367 217° Southwest 407 468 30,400 -1,440 Descending Jacksonville Center
03:35PM 33.3781 -80.1192 217° Southwest 407 468 28,900 -1,500 Descending Jacksonville Center
03:36PM 33.2922 -80.1939 216° Southwest 417 480 27,400 -1,500 Descending Jacksonville Center
03:37PM 33.2019 -80.2786 218° Southwest 422 486 25,900 -1,500 Descending Jacksonville Center
03:38PM 33.0994 -80.3583 213° Southwest 433 498 24,500 -1,560 Descending Jacksonville Center
03:39PM 33.0069 -80.4428 217° Southwest 426 490 22,800 -1,800 Descending Jacksonville Center
03:40PM 32.9167 -80.5219 216° Southwest 420 483 21,000 -2,220 Descending Jacksonville Center
03:41PM 32.8306 -80.5958 216° Southwest 408 470 18,400 -2,700 Descending Jacksonville Center
03:42PM 32.7483 -80.6697 217° Southwest 394 453 15,700 -2,640 Descending Jacksonville Center
03:43PM 32.6681 -80.7383 216° Southwest 375 432 13,200 -2,400 Descending Jacksonville Center
03:44PM 32.5919 -80.8042 216° Southwest 358 412 11,000 -1,560 Descending Jacksonville Center
03:45PM 32.5178 -80.8700 217° Southwest 351 404 10,100 -960 Descending Jacksonville Center
03:46PM 32.4603 -80.9206 217° Southwest 278 320 9,100 -1,320 Descending Jacksonville Center
03:47PM 32.3792 -80.9517 198° South 278 320 7,500 -1,800 Descending Jacksonville Center
03:48PM 32.3189 -80.9728 196° South 267 307 5,500 -2,100 Descending Jacksonville Center
03:49PM 32.2525 -80.9986 198° South 250 288 3,300 -1,980 Descending Jacksonville Center
03:50PM 32.1947 -81.0464 215° Southwest 240 276 1,600 -840 Descending Jacksonville Center
03:51PM 32.1494 -81.0817 213° Southwest 222 255 1,700 -300 Climbing Jacksonville Center
03:52PM 32.1250 -81.1239 236° Southwest 183 211 1,000 -600 Descending Jacksonville Center
03:53PM 32.1275 -81.1606 275° West 131 151 600 -360 Descending Jacksonville Center
03:54PM 32.1239 -81.2025 264° West 125 144 300 11,700 Descending Jacksonville Center
03:55PM 32.1244 -81.2442 271° West 125 144 24,000 23,700 Climbing Jacksonville Center
03:57PM 32.1167 -81.2000 North  Level FlightAware Approximate